Time;durP1;ratioP1;P1;durP2;ratioP2;P2;SDS_P1;SDS_P2;PMS_P1;PMS_P2;Temp;Humidity;BMP_temperature;BMP_pressure;BME280_temperature;BME280_humidity;BME280_pressure;Samples;Min_cycle;Max_cycle;Signal;HPM_P1;HPM_P2
2023/07/10 00:02:20;;;;;;;4.55;4.15;;;25.10;99.90;;;;;;5021363;28;20227;-75
2023/07/10 00:04:47;;;;;;;3.97;3.67;;;25.00;99.90;;;;;;5026260;28;20226;-75
2023/07/10 00:07:14;;;;;;;4.30;3.90;;;25.00;99.90;;;;;;5025223;28;20267;-75
2023/07/10 00:09:41;;;;;;;4.57;4.18;;;24.90;99.90;;;;;;5023568;28;20258;-76
2023/07/10 00:12:12;;;;;;;5.10;4.15;;;24.80;99.90;;;;;;5025015;28;20219;-75
2023/07/10 00:14:39;;;;;;;4.63;4.22;;;24.80;99.90;;;;;;5027131;28;20289;-75
2023/07/10 00:17:10;;;;;;;4.47;4.07;;;24.80;99.90;;;;;;5020337;28;20589;-75
2023/07/10 00:19:37;;;;;;;4.80;4.30;;;24.80;99.90;;;;;;5025576;28;20211;-75
2023/07/10 00:22:04;;;;;;;5.30;4.80;;;24.70;99.90;;;;;;5027307;28;20647;-75
2023/07/10 00:24:31;;;;;;;5.50;5.00;;;24.50;99.90;;;;;;5029682;28;20680;-76
2023/07/10 00:26:58;;;;;;;6.03;4.78;;;24.50;99.90;;;;;;5027368;28;20290;-75
2023/07/10 00:29:31;;;;;;;4.90;4.50;;;24.50;99.90;;;;;;5020149;28;20742;-76
2023/07/10 00:31:58;;;;;;;4.32;4.03;;;24.40;99.90;;;;;;5023321;28;20274;-75
2023/07/10 00:34:27;;;;;;;4.47;4.05;;;24.30;99.90;;;;;;5024903;28;21003;-76
2023/07/10 00:36:54;;;;;;;5.10;4.57;;;24.20;99.90;;;;;;5027569;28;20262;-75
2023/07/10 00:39:23;;;;;;;4.03;3.65;;;24.10;99.90;;;;;;5023511;28;20567;-75
2023/07/10 00:41:55;;;;;;;4.72;4.32;;;24.10;99.90;;;;;;5026494;28;20200;-75
2023/07/10 00:44:26;;;;;;;5.07;4.57;;;24.00;99.90;;;;;;5022440;28;20266;-75
2023/07/10 00:46:58;;;;;;;4.90;4.50;;;23.90;99.90;;;;;;5025832;28;20310;-75
2023/07/10 00:49:32;;;;;;;5.68;5.18;;;23.90;99.90;;;;;;5029064;28;20622;-76
2023/07/10 00:52:04;;;;;;;4.72;4.32;;;24.00;99.90;;;;;;5034208;28;20219;-76
2023/07/10 00:54:35;;;;;;;4.57;4.18;;;24.00;99.90;;;;;;5036682;28;20204;-75
2023/07/10 00:57:06;;;;;;;5.45;4.95;;;24.20;99.90;;;;;;5038177;28;20302;-76
2023/07/10 00:59:39;;;;;;;4.63;4.22;;;24.40;99.90;;;;;;5024091;28;20200;-76
2023/07/10 01:02:26;;;;;;;4.18;3.80;;;24.50;99.90;;;;;;5029298;28;20249;-76
2023/07/10 01:04:58;;;;;;;3.97;3.67;;;24.60;99.90;;;;;;5021699;28;20695;-76
2023/07/10 01:07:28;;;;;;;4.20;3.80;;;24.60;99.90;;;;;;5025813;28;20196;-75
2023/07/10 01:10:00;;;;;;;4.20;3.88;;;24.70;99.90;;;;;;5021532;28;20308;-75
2023/07/10 01:12:29;;;;;;;4.32;3.97;;;24.70;99.90;;;;;;5027715;28;20259;-77
2023/07/10 01:14:56;;;;;;;4.20;3.80;;;24.80;99.90;;;;;;5023309;28;20904;-75
2023/07/10 01:17:23;;;;;;;4.30;3.95;;;24.70;99.90;;;;;;5026310;28;20748;-77
2023/07/10 01:19:53;;;;;;;4.90;4.43;;;24.70;99.90;;;;;;5025898;28;20200;-76
2023/07/10 01:22:21;;;;;;;4.72;4.22;;;24.70;99.90;;;;;;5023445;28;20302;-76
2023/07/10 01:24:52;;;;;;;4.45;4.05;;;24.70;99.90;;;;;;5020908;28;20725;-76
2023/07/10 01:27:21;;;;;;;4.47;4.10;;;24.70;99.90;;;;;;5025963;28;20250;-76
2023/07/10 01:29:57;;;;;;;4.40;4.00;;;24.60;99.90;;;;;;5025539;28;20257;-76
2023/07/10 01:32:27;;;;;;;5.05;4.65;;;24.60;99.90;;;;;;5026187;28;20306;-77
2023/07/10 01:34:57;;;;;;;4.70;4.18;;;24.60;99.90;;;;;;5023403;28;20210;-76
2023/07/10 01:37:26;;;;;;;4.70;4.30;;;24.60;99.90;;;;;;5030225;28;20218;-75
2023/07/10 01:39:54;;;;;;;4.60;4.20;;;24.60;99.90;;;;;;5022267;28;20227;-75
2023/07/10 01:42:21;;;;;;;5.22;4.80;;;24.60;99.90;;;;;;5027311;28;20227;-75
2023/07/10 01:44:50;;;;;;;4.47;4.07;;;24.60;99.90;;;;;;5025535;28;20242;-77
2023/07/10 01:47:17;;;;;;;4.60;4.20;;;24.50;99.90;;;;;;5029484;28;20253;-76
2023/07/10 01:49:47;;;;;;;4.40;4.00;;;24.30;99.90;;;;;;5028344;28;20233;-75
2023/07/10 01:52:15;;;;;;;4.85;4.45;;;24.20;99.90;;;;;;5022265;28;20258;-76
2023/07/10 01:54:44;;;;;;;4.43;4.03;;;24.20;99.90;;;;;;5022056;28;20648;-75
2023/07/10 01:57:13;;;;;;;4.10;3.70;;;24.20;99.90;;;;;;5028035;28;20206;-74
2023/07/10 01:59:40;;;;;;;4.65;4.25;;;24.20;99.90;;;;;;5022237;28;20211;-75
2023/07/10 02:02:08;;;;;;;5.05;4.65;;;24.20;99.90;;;;;;5020341;28;20294;-75
2023/07/10 02:04:36;;;;;;;4.72;4.32;;;24.30;99.90;;;;;;5023956;28;20295;-76
2023/07/10 02:07:03;;;;;;;4.30;3.90;;;24.30;99.90;;;;;;5024857;28;20287;-76
2023/07/10 02:09:30;;;;;;;4.18;3.80;;;24.30;99.90;;;;;;5028411;28;20730;-75
2023/07/10 02:11:59;;;;;;;4.40;4.10;;;24.30;99.90;;;;;;5029076;28;20322;-76
2023/07/10 02:14:26;;;;;;;5.15;4.05;;;24.30;99.90;;;;;;5027709;28;20239;-76
2023/07/10 02:16:54;;;;;;;4.53;4.10;;;24.30;99.90;;;;;;5029524;28;20283;-76
2023/07/10 02:19:21;;;;;;;4.72;4.32;;;24.30;99.90;;;;;;5026109;28;20231;-75
2023/07/10 02:21:49;;;;;;;5.68;4.40;;;24.30;99.90;;;;;;5030140;28;20265;-76
2023/07/10 02:24:16;;;;;;;4.72;4.32;;;24.30;99.90;;;;;;5031428;28;20242;-76
2023/07/10 02:26:43;;;;;;;4.88;4.38;;;24.30;99.90;;;;;;5022555;28;20199;-76
2023/07/10 02:29:11;;;;;;;3.90;3.60;;;24.30;99.90;;;;;;5029429;28;20282;-76
2023/07/10 02:31:38;;;;;;;4.50;4.10;;;24.30;99.90;;;;;;5035209;28;20255;-75
2023/07/10 02:34:05;;;;;;;5.20;4.70;;;24.20;99.90;;;;;;5026830;28;20277;-76
2023/07/10 02:36:34;;;;;;;5.13;4.72;;;24.20;99.90;;;;;;5025004;28;20936;-76
2023/07/10 02:39:00;;;;;;;4.10;3.80;;;24.20;99.90;;;;;;5023575;28;20284;-76
2023/07/10 02:41:27;;;;;;;4.32;4.03;;;24.20;99.90;;;;;;5027655;28;20429;-75
2023/07/10 02:43:54;;;;;;;4.25;3.85;;;24.20;99.90;;;;;;5031706;28;20269;-76
2023/07/10 02:46:23;;;;;;;4.40;4.00;;;24.10;99.90;;;;;;5026380;28;20832;-75
2023/07/10 02:48:50;;;;;;;4.80;4.40;;;24.10;99.90;;;;;;5021484;28;20200;-76
2023/07/10 02:51:16;;;;;;;4.82;4.28;;;24.10;99.90;;;;;;5029572;28;20270;-77
2023/07/10 02:53:43;;;;;;;5.13;4.60;;;24.10;99.90;;;;;;5030072;28;20272;-76
2023/07/10 02:56:10;;;;;;;5.32;4.93;;;24.10;99.90;;;;;;5033220;28;20280;-76
2023/07/10 02:58:37;;;;;;;5.00;4.57;;;24.00;99.90;;;;;;5026366;28;20222;-76
2023/07/10 03:01:04;;;;;;;5.20;4.70;;;24.10;99.90;;;;;;5031794;28;20228;-76
2023/07/10 03:03:33;;;;;;;5.10;4.60;;;24.10;99.90;;;;;;5032990;28;20778;-75
2023/07/10 03:06:02;;;;;;;4.93;4.53;;;24.00;99.90;;;;;;5038362;28;20682;-76
2023/07/10 03:08:30;;;;;;;5.32;4.82;;;24.00;99.90;;;;;;5025973;28;20234;-76
2023/07/10 03:11:01;;;;;;;6.07;5.20;;;24.10;99.90;;;;;;5042062;28;20199;-76
2023/07/10 03:13:28;;;;;;;5.97;4.70;;;24.10;99.90;;;;;;5036601;28;20326;-75
2023/07/10 03:16:00;;;;;;;5.38;4.85;;;24.10;99.90;;;;;;5040361;28;20230;-76
2023/07/10 03:18:27;;;;;;;5.10;4.60;;;24.10;99.90;;;;;;5037141;28;20235;-76
2023/07/10 03:20:56;;;;;;;4.68;4.28;;;24.10;99.90;;;;;;5034946;28;20282;-75
2023/07/10 03:23:22;;;;;;;5.38;4.55;;;24.00;99.90;;;;;;5031012;28;20270;-76
2023/07/10 03:25:49;;;;;;;5.10;4.70;;;24.00;99.90;;;;;;5025206;28;20784;-75
2023/07/10 03:28:16;;;;;;;4.88;4.45;;;24.00;99.90;;;;;;5021752;28;20299;-75
2023/07/10 03:30:43;;;;;;;5.05;4.65;;;24.00;99.90;;;;;;5025068;28;20231;-75
2023/07/10 03:33:13;;;;;;;4.80;4.40;;;24.00;99.90;;;;;;5021860;28;20247;-76
2023/07/10 03:35:40;;;;;;;4.63;4.22;;;23.90;99.90;;;;;;5021941;28;20353;-75
2023/07/10 03:38:09;;;;;;;4.15;3.85;;;23.80;99.90;;;;;;5027677;28;20199;-76
2023/07/10 03:40:36;;;;;;;5.10;4.70;;;23.70;99.90;;;;;;5031413;28;20231;-75
2023/07/10 03:43:03;;;;;;;4.72;4.32;;;23.70;99.90;;;;;;5028415;28;20269;-77
2023/07/10 03:45:31;;;;;;;4.85;4.45;;;23.70;99.90;;;;;;5026667;28;20701;-75
2023/07/10 03:47:58;;;;;;;4.70;4.30;;;23.70;99.90;;;;;;5025630;28;20789;-76
2023/07/10 03:50:25;;;;;;;4.70;4.30;;;23.60;99.90;;;;;;5026406;28;20587;-77
2023/07/10 03:52:52;;;;;;;3.97;3.67;;;23.60;99.90;;;;;;5022894;28;20219;-76
2023/07/10 03:55:20;;;;;;;4.97;4.43;;;23.60;99.90;;;;;;5027542;28;20898;-75
2023/07/10 03:57:47;;;;;;;4.38;3.90;;;23.60;99.90;;;;;;5032781;28;20731;-76
2023/07/10 04:00:15;;;;;;;4.50;4.10;;;23.60;99.90;;;;;;5024441;28;20231;-76
2023/07/10 04:02:42;;;;;;;4.18;3.78;;;23.60;99.90;;;;;;5022047;28;20318;-75
2023/07/10 04:05:09;;;;;;;5.05;4.60;;;23.70;99.90;;;;;;5030432;28;20231;-75
2023/07/10 04:07:36;;;;;;;5.75;5.13;;;23.70;99.90;;;;;;5021852;28;20238;-76
2023/07/10 04:10:04;;;;;;;9.65;4.55;;;23.70;99.90;;;;;;5023267;28;20767;-76
2023/07/10 04:12:32;;;;;;;4.68;4.28;;;23.80;99.90;;;;;;5023593;28;20277;-75
2023/07/10 04:14:59;;;;;;;4.82;4.43;;;23.80;99.90;;;;;;5027479;28;21102;-75
2023/07/10 04:17:26;;;;;;;4.95;4.22;;;23.80;99.90;;;;;;5024520;28;20212;-75
2023/07/10 04:19:53;;;;;;;5.28;4.40;;;23.90;99.90;;;;;;5030427;28;20203;-76
2023/07/10 04:22:20;;;;;;;4.55;4.18;;;23.90;99.90;;;;;;5027455;28;20211;-76
2023/07/10 04:24:47;;;;;;;4.95;4.55;;;24.00;99.90;;;;;;5027342;28;20234;-75
2023/07/10 04:27:14;;;;;;;4.70;4.30;;;23.90;99.90;;;;;;5030242;28;20237;-75
2023/07/10 04:29:42;;;;;;;5.40;4.68;;;23.70;99.90;;;;;;5034121;28;20199;-76
2023/07/10 04:32:10;;;;;;;5.03;4.53;;;23.60;99.90;;;;;;5035456;28;20279;-75
2023/07/10 04:34:37;;;;;;;4.65;3.75;;;23.70;99.90;;;;;;5031045;28;20236;-76
2023/07/10 04:37:04;;;;;;;4.63;4.22;;;23.80;99.90;;;;;;5038535;28;20739;-75
2023/07/10 04:39:31;;;;;;;7.43;4.22;;;23.90;99.90;;;;;;5015802;28;20205;-75
2023/07/10 04:41:58;;;;;;;5.28;4.10;;;24.00;99.90;;;;;;5022324;28;20200;-77
2023/07/10 04:44:25;;;;;;;4.65;4.22;;;24.00;99.90;;;;;;5027250;28;20725;-75
2023/07/10 04:46:53;;;;;;;5.05;4.47;;;24.10;99.90;;;;;;5027557;28;20288;-75
2023/07/10 04:49:20;;;;;;;5.03;4.63;;;24.10;99.90;;;;;;5022106;28;20315;-76
2023/07/10 04:51:47;;;;;;;4.60;4.20;;;24.10;99.90;;;;;;5021507;28;20322;-75
2023/07/10 04:54:14;;;;;;;5.07;4.53;;;24.10;99.90;;;;;;5021328;28;20289;-76
2023/07/10 04:56:41;;;;;;;5.60;4.63;;;24.20;99.90;;;;;;5024714;28;23098;-76
2023/07/10 04:59:08;;;;;;;4.47;4.03;;;24.20;99.90;;;;;;5031143;28;20234;-75
2023/07/10 05:01:36;;;;;;;5.05;4.57;;;24.20;99.90;;;;;;5034786;28;20240;-76
2023/07/10 05:04:05;;;;;;;5.82;4.13;;;24.20;99.90;;;;;;5030800;28;20293;-75
2023/07/10 05:06:32;;;;;;;4.47;4.07;;;24.30;99.90;;;;;;5028883;28;20203;-76
2023/07/10 05:08:59;;;;;;;4.50;4.10;;;24.30;99.90;;;;;;5025634;28;20227;-76
2023/07/10 05:11:28;;;;;;;3.95;3.65;;;24.40;99.90;;;;;;5022875;28;20238;-75
2023/07/10 05:13:56;;;;;;;6.82;4.78;;;24.60;99.90;;;;;;5026513;28;20277;-76
2023/07/10 05:16:24;;;;;;;5.10;4.60;;;24.70;99.90;;;;;;5021283;28;20219;-76
2023/07/10 05:18:51;;;;;;;5.38;4.88;;;24.80;99.90;;;;;;5030945;28;20658;-77
2023/07/10 05:21:21;;;;;;;5.15;4.65;;;24.70;99.90;;;;;;5028836;28;20214;-75
2023/07/10 05:23:48;;;;;;;5.13;4.72;;;24.70;99.90;;;;;;5042556;28;20215;-77
2023/07/10 05:26:16;;;;;;;5.20;4.80;;;24.80;99.90;;;;;;5043078;28;20215;-77
2023/07/10 05:28:44;;;;;;;5.30;4.72;;;24.80;99.90;;;;;;5041830;28;20210;-77
2023/07/10 05:31:13;;;;;;;5.40;4.90;;;24.80;99.90;;;;;;5036997;28;20206;-77
2023/07/10 05:33:40;;;;;;;5.20;4.30;;;25.00;99.90;;;;;;5039121;28;20216;-76
2023/07/10 05:36:10;;;;;;;5.07;4.68;;;25.20;99.90;;;;;;5041755;28;20202;-77
2023/07/10 05:38:38;;;;;;;5.30;4.80;;;25.20;99.90;;;;;;5046728;28;20195;-77
2023/07/10 05:41:05;;;;;;;5.78;5.03;;;25.20;99.90;;;;;;5045836;28;20195;-76
2023/07/10 05:43:33;;;;;;;6.65;5.43;;;25.20;99.90;;;;;;5043713;28;20212;-76
2023/07/10 05:46:01;;;;;;;5.95;5.32;;;25.00;99.90;;;;;;5042917;28;20195;-77
2023/07/10 05:48:28;;;;;;;5.88;5.38;;;24.90;99.90;;;;;;5036676;28;20200;-76
2023/07/10 05:50:55;;;;;;;5.90;5.25;;;25.00;99.90;;;;;;5032627;28;20195;-76
2023/07/10 05:53:22;;;;;;;6.45;5.85;;;25.00;99.90;;;;;;5027757;28;20224;-77
2023/07/10 05:55:52;;;;;;;5.40;4.90;;;25.20;99.90;;;;;;5033775;28;20207;-77
2023/07/10 05:58:20;;;;;;;5.65;5.05;;;25.20;99.90;;;;;;5035934;28;20206;-76
2023/07/10 06:00:49;;;;;;;5.22;4.82;;;25.40;99.90;;;;;;5031399;28;20257;-75
2023/07/10 06:03:16;;;;;;;5.47;4.97;;;25.50;99.90;;;;;;5017341;28;20291;-75
2023/07/10 06:05:52;;;;;;;5.25;4.75;;;25.70;99.90;;;;;;5028933;28;20751;-76
2023/07/10 06:08:19;;;;;;;5.47;4.97;;;25.90;99.90;;;;;;5019777;28;20313;-77
2023/07/10 06:10:46;;;;;;;6.13;5.28;;;25.80;99.90;;;;;;5023489;28;20714;-77
2023/07/10 06:13:15;;;;;;;6.65;5.97;;;25.70;99.90;;;;;;5015018;28;20303;-76
2023/07/10 06:15:42;;;;;;;6.38;5.78;;;25.60;99.90;;;;;;5017566;28;20276;-77
2023/07/10 06:18:09;;;;;;;6.47;5.93;;;25.50;99.90;;;;;;5015579;28;20227;-76
2023/07/10 06:20:36;;;;;;;5.95;5.45;;;25.60;99.90;;;;;;5018905;28;20291;-75
2023/07/10 06:23:03;;;;;;;7.32;5.72;;;25.60;99.90;;;;;;5020416;28;20215;-76
2023/07/10 06:25:31;;;;;;;6.70;5.72;;;25.60;99.90;;;;;;5021429;28;20207;-76
2023/07/10 06:27:58;;;;;;;6.38;5.78;;;25.60;99.90;;;;;;5021796;28;20897;-77
2023/07/10 06:30:27;;;;;;;6.38;5.78;;;25.80;99.90;;;;;;5020554;28;20290;-75
2023/07/10 06:32:54;;;;;;;7.00;6.40;;;25.90;99.90;;;;;;5019089;28;20313;-76
2023/07/10 06:35:21;;;;;;;6.60;5.90;;;26.00;99.90;;;;;;5012555;28;20241;-76
2023/07/10 06:37:47;;;;;;;6.72;6.03;;;26.00;99.90;;;;;;5016451;28;20756;-77
2023/07/10 06:40:16;;;;;;;6.80;6.10;;;26.10;99.90;;;;;;5017880;28;20286;-77
2023/07/10 06:42:44;;;;;;;6.50;5.82;;;26.20;99.90;;;;;;5017011;28;20332;-77
2023/07/10 06:45:13;;;;;;;6.53;5.80;;;26.30;99.90;;;;;;5020006;28;20283;-76
2023/07/10 06:47:43;;;;;;;6.68;6.07;;;26.40;99.90;;;;;;5017907;28;20207;-76
2023/07/10 06:50:12;;;;;;;5.93;5.38;;;26.40;99.90;;;;;;5017666;28;20287;-76
2023/07/10 06:52:40;;;;;;;7.10;5.90;;;26.50;99.90;;;;;;5022880;28;20314;-77
2023/07/10 06:55:11;;;;;;;6.80;6.05;;;26.70;99.90;;;;;;5015018;28;20318;-77
2023/07/10 06:57:38;;;;;;;9.10;5.60;;;26.80;99.90;;;;;;5023708;28;20696;-77
2023/07/10 07:00:08;;;;;;;7.03;5.78;;;26.80;99.90;;;;;;5019435;28;20940;-78
2023/07/10 07:02:35;;;;;;;6.18;5.68;;;26.90;99.90;;;;;;4995727;28;20274;-77
2023/07/10 07:05:04;;;;;;;6.32;5.65;;;27.10;99.90;;;;;;5019668;28;20205;-77
2023/07/10 07:07:31;;;;;;;5.88;5.30;;;27.10;99.90;;;;;;5021811;28;20741;-76
2023/07/10 07:09:58;;;;;;;5.30;4.80;;;27.10;99.90;;;;;;5020876;28;20300;-76
2023/07/10 07:12:25;;;;;;;8.20;5.80;;;27.10;99.90;;;;;;5021771;28;20773;-77
2023/07/10 07:14:52;;;;;;;6.95;5.45;;;27.00;99.90;;;;;;5019589;28;20290;-77
2023/07/10 07:17:19;;;;;;;6.30;5.70;;;27.10;99.90;;;;;;5020559;28;20832;-77
2023/07/10 07:19:47;;;;;;;7.50;6.00;;;27.10;99.90;;;;;;5019370;28;20203;-78
2023/07/10 07:22:16;;;;;;;6.85;6.10;;;27.20;99.90;;;;;;5019265;28;20674;-76
2023/07/10 07:24:43;;;;;;;6.30;5.75;;;27.20;99.90;;;;;;5018746;28;20204;-76
2023/07/10 07:27:10;;;;;;;9.27;6.35;;;27.10;99.90;;;;;;5025911;28;20226;-77
2023/07/10 07:29:37;;;;;;;6.05;5.53;;;27.20;99.90;;;;;;5020381;28;20283;-78
2023/07/10 07:32:05;;;;;;;8.00;6.55;;;27.20;99.90;;;;;;5032946;28;20281;-76
2023/07/10 07:34:32;;;;;;;7.43;6.70;;;27.20;99.90;;;;;;5020886;28;20248;-77
2023/07/10 07:36:59;;;;;;;6.50;5.90;;;27.20;99.90;;;;;;5026278;28;20230;-77
2023/07/10 07:39:31;;;;;;;8.15;7.00;;;27.20;99.90;;;;;;5023998;28;20226;-76
2023/07/10 07:41:58;;;;;;;5.43;4.90;;;27.30;99.90;;;;;;5027343;28;20685;-76
2023/07/10 07:44:25;;;;;;;5.68;5.18;;;27.40;99.90;;;;;;5021554;28;20311;-76
2023/07/10 07:46:52;;;;;;;6.40;5.55;;;27.70;99.90;;;;;;5022988;28;20290;-77
2023/07/10 07:49:21;;;;;;;6.03;5.40;;;27.90;99.90;;;;;;5024888;28;20631;-76
2023/07/10 07:51:48;;;;;;;5.85;5.35;;;28.10;99.90;;;;;;5018230;28;20257;-76
2023/07/10 07:54:16;;;;;;;6.47;5.88;;;28.20;99.90;;;;;;5020685;28;20242;-77
2023/07/10 07:56:44;;;;;;;6.63;6.03;;;28.20;99.90;;;;;;5029658;28;20222;-77
2023/07/10 07:59:11;;;;;;;6.40;5.72;;;28.10;99.90;;;;;;5026370;28;20670;-77
2023/07/10 08:01:38;;;;;;;6.07;5.50;;;28.30;99.90;;;;;;5023498;28;20941;-77
2023/07/10 08:04:05;;;;;;;6.15;5.55;;;28.30;99.90;;;;;;5025708;28;20772;-77
2023/07/10 08:06:34;;;;;;;6.10;5.60;;;28.40;99.90;;;;;;5023930;28;20286;-77
2023/07/10 08:09:02;;;;;;;6.32;5.72;;;28.40;99.90;;;;;;5019485;28;20226;-76
2023/07/10 08:11:29;;;;;;;6.03;5.53;;;28.40;99.90;;;;;;5017741;28;20286;-76
2023/07/10 08:13:57;;;;;;;6.70;6.03;;;28.50;99.90;;;;;;5019012;28;20277;-77
2023/07/10 08:16:25;;;;;;;6.35;5.75;;;28.70;99.90;;;;;;5017401;28;20283;-77
2023/07/10 08:18:51;;;;;;;7.38;6.28;;;29.00;99.90;;;;;;5022674;28;20249;-77
2023/07/10 08:21:20;;;;;;;6.82;6.13;;;29.20;99.90;;;;;;5021078;28;20203;-77
2023/07/10 08:23:47;;;;;;;7.43;6.82;;;29.20;99.90;;;;;;5016700;28;20243;-77
2023/07/10 08:26:14;;;;;;;6.30;5.80;;;29.20;99.90;;;;;;5019530;28;20279;-76
2023/07/10 08:28:41;;;;;;;6.60;5.90;;;29.10;99.90;;;;;;5020396;28;20210;-77
2023/07/10 08:31:10;;;;;;;5.95;5.38;;;29.10;99.90;;;;;;5021469;28;20278;-77
2023/07/10 08:33:37;;;;;;;6.13;5.60;;;29.10;99.90;;;;;;5016199;28;20251;-76
2023/07/10 08:36:06;;;;;;;7.45;6.07;;;29.10;99.90;;;;;;5014121;28;20297;-77
2023/07/10 08:38:35;;;;;;;6.55;5.95;;;29.10;99.90;;;;;;5011772;28;20326;-76
2023/07/10 08:41:04;;;;;;;8.23;6.28;;;29.10;99.90;;;;;;5019275;28;20214;-76
2023/07/10 08:43:34;;;;;;;7.70;5.80;;;29.10;99.90;;;;;;5013122;28;20211;-76
2023/07/10 08:46:07;;;;;;;7.10;6.40;;;29.20;99.90;;;;;;5012820;28;20266;-76
2023/07/10 08:48:39;;;;;;;7.78;6.15;;;29.20;99.90;;;;;;5014957;28;20241;-76
2023/07/10 08:51:16;;;;;;;6.03;5.53;;;29.30;99.90;;;;;;5009975;28;21174;-77
2023/07/10 08:53:50;;;;;;;6.13;5.63;;;29.50;99.90;;;;;;5012082;28;20226;-76
2023/07/10 08:56:26;;;;;;;7.30;5.72;;;29.80;99.90;;;;;;5016437;28;20799;-77
2023/07/10 08:58:59;;;;;;;6.13;5.63;;;29.90;99.90;;;;;;5012014;28;20195;-77
2023/07/10 09:01:31;;;;;;;5.78;5.28;;;30.10;99.90;;;;;;5017316;28;20278;-77
2023/07/10 09:04:02;;;;;;;6.68;5.80;;;30.20;99.90;;;;;;5021087;28;20219;-76
2023/07/10 09:06:37;;;;;;;7.47;6.57;;;30.40;99.90;;;;;;5015782;28;20715;-78
2023/07/10 09:09:13;;;;;;;6.65;6.05;;;30.40;99.90;;;;;;5015744;28;20300;-77
2023/07/10 09:11:41;;;;;;;6.22;5.65;;;30.40;99.90;;;;;;5014592;28;20207;-78
2023/07/10 09:14:23;;;;;;;6.53;5.97;;;30.40;99.90;;;;;;5019385;28;20253;-77
2023/07/10 09:16:54;;;;;;;8.00;5.95;;;30.50;99.90;;;;;;5017831;28;20766;-78
2023/07/10 09:19:24;;;;;;;6.15;5.65;;;30.50;99.90;;;;;;5013958;28;20296;-76
2023/07/10 09:21:51;;;;;;;6.63;5.97;;;30.70;99.90;;;;;;5013474;28;20238;-78
2023/07/10 09:24:21;;;;;;;6.28;5.63;;;30.90;99.90;;;;;;5016424;28;20274;-77
2023/07/10 09:26:49;;;;;;;7.55;6.55;;;31.00;99.90;;;;;;5011126;28;20195;-78
2023/07/10 09:29:30;;;;;;;6.57;6.07;;;31.10;99.90;;;;;;5014439;28;20775;-77
2023/07/10 09:32:03;;;;;;;5.75;5.25;;;31.10;99.90;;;;;;5016710;28;20752;-75
2023/07/10 09:34:33;;;;;;;6.32;5.72;;;31.10;99.90;;;;;;5019863;28;20223;-78
2023/07/10 09:37:03;;;;;;;7.95;6.40;;;31.10;99.90;;;;;;5020048;28;20282;-77
2023/07/10 09:39:32;;;;;;;6.75;6.15;;;31.20;99.90;;;;;;5019273;28;20663;-77
2023/07/10 09:41:59;;;;;;;6.13;5.63;;;31.30;99.90;;;;;;5016214;28;20294;-77
2023/07/10 09:44:34;;;;;;;7.13;6.43;;;31.40;99.90;;;;;;5019409;28;20770;-77
2023/07/10 09:47:08;;;;;;;7.72;6.93;;;31.40;99.90;;;;;;5017343;28;20306;-77
2023/07/10 09:49:42;;;;;;;7.45;6.70;;;31.60;99.90;;;;;;5018669;28;20210;-77
2023/07/10 09:52:19;;;;;;;6.88;6.18;;;31.70;99.90;;;;;;5017342;28;21616;-77
2023/07/10 09:54:46;;;;;;;6.30;5.63;;;31.70;99.90;;;;;;5015946;28;20282;-77
2023/07/10 09:57:17;;;;;;;6.75;6.15;;;31.60;99.90;;;;;;5023541;28;20230;-76
2023/07/10 09:59:49;;;;;;;6.80;6.20;;;31.60;99.90;;;;;;5021118;28;20262;-76
2023/07/10 10:02:19;;;;;;;6.38;5.78;;;31.60;99.90;;;;;;5019056;28;20294;-77
2023/07/10 10:04:52;;;;;;;10.02;6.30;;;31.70;99.90;;;;;;5019237;28;20285;-77
2023/07/10 10:07:21;;;;;;;6.80;6.20;;;31.80;99.90;;;;;;5020270;28;20208;-77
2023/07/10 10:13:05;;;;;;;6.90;5.80;;;31.70;99.90;;;;;;5084094;27;20329;-75
2023/07/10 10:15:43;;;;;;;6.22;5.72;;;31.80;99.90;;;;;;5074178;28;20250;-76
2023/07/10 10:18:33;;;;;;;8.20;6.95;;;31.90;99.90;;;;;;5074655;28;20209;-76
2023/07/10 10:21:02;;;;;;;6.90;6.20;;;31.80;99.90;;;;;;5072917;28;20321;-77
2023/07/10 10:23:31;;;;;;;7.20;6.20;;;31.70;99.90;;;;;;5077558;28;20992;-76
2023/07/10 10:26:25;;;;;;;5.95;5.40;;;31.70;99.90;;;;;;5076857;28;20312;-76
2023/07/10 10:29:07;;;;;;;6.13;5.63;;;31.90;99.90;;;;;;5075433;28;20205;-77
2023/07/10 10:31:39;;;;;;;6.07;5.57;;;32.00;99.90;;;;;;5074321;28;20245;-76
2023/07/10 10:34:16;;;;;;;6.45;5.85;;;32.10;99.90;;;;;;5078065;28;20221;-76
2023/07/10 10:36:52;;;;;;;7.63;6.82;;;32.30;99.90;;;;;;5077254;28;20232;-77
2023/07/10 10:39:27;;;;;;;6.13;5.50;;;32.30;99.90;;;;;;5077188;28;20202;-76
2023/07/10 10:41:57;;;;;;;6.25;5.43;;;32.50;99.90;;;;;;5075391;28;20251;-76
2023/07/10 10:44:51;;;;;;;8.00;6.38;;;32.80;99.90;;;;;;5074596;28;20341;-77
2023/07/10 10:47:31;;;;;;;6.40;5.80;;;32.90;99.90;;;;;;5077387;28;20266;-75
2023/07/10 10:50:18;;;;;;;7.45;6.18;;;33.00;99.90;;;;;;5070962;28;20237;-75
2023/07/10 10:52:56;;;;;;;7.20;6.47;;;33.00;99.90;;;;;;5069419;28;20304;-77
2023/07/10 10:55:36;;;;;;;6.88;6.07;;;33.10;99.90;;;;;;5074949;28;20738;-76
2023/07/10 10:58:17;;;;;;;6.40;5.80;;;33.20;99.90;;;;;;5077821;28;20923;-77
2023/07/10 11:01:04;;;;;;;6.05;5.55;;;33.00;99.90;;;;;;5076042;28;20285;-76
2023/07/10 11:03:38;;;;;;;8.27;5.68;;;32.80;99.90;;;;;;5075082;28;20217;-75
2023/07/10 11:06:44;;;;;;;5.93;5.40;;;32.80;99.90;;;;;;5075449;28;20288;-77
2023/07/10 11:09:15;;;;;;;5.90;5.40;;;32.80;99.90;;;;;;5074926;28;20202;-76
2023/07/10 11:11:43;;;;;;;6.00;5.40;;;32.80;99.90;;;;;;5075616;28;20294;-78
2023/07/10 11:14:13;;;;;;;6.15;5.28;;;32.70;99.90;;;;;;5075501;28;20882;-76
2023/07/10 11:16:42;;;;;;;6.47;5.85;;;32.70;99.90;;;;;;5077067;28;20206;-77
2023/07/10 11:19:15;;;;;;;6.18;5.57;;;32.60;99.90;;;;;;5076143;28;20288;-76
2023/07/10 11:21:42;;;;;;;5.65;5.15;;;32.70;99.90;;;;;;5071752;28;20186;-76
2023/07/10 11:24:27;;;;;;;6.15;5.55;;;32.70;99.90;;;;;;5062966;28;20218;-76
2023/07/10 11:27:00;;;;;;;5.45;4.95;;;32.90;99.90;;;;;;5060846;28;20733;-76
2023/07/10 11:29:30;;;;;;;5.38;4.75;;;33.20;99.90;;;;;;5062179;28;20275;-77
2023/07/10 11:32:01;;;;;;;4.65;4.25;;;33.20;99.90;;;;;;5063214;28;20218;-77
2023/07/10 11:34:50;;;;;;;5.18;4.68;;;33.40;99.90;;;;;;5061533;28;20703;-76
2023/07/10 11:38:05;;;;;;;6.47;5.18;;;33.80;99.90;;;;;;5061893;28;20293;-77
2023/07/10 11:40:47;;;;;;;5.88;5.38;;;34.00;99.90;;;;;;5063375;28;20271;-76
2023/07/10 11:43:54;;;;;;;5.95;5.35;;;33.90;99.90;;;;;;5059920;28;20656;-75
2023/07/10 11:46:34;;;;;;;5.45;4.95;;;33.80;99.90;;;;;;5063089;28;20221;-76
2023/07/10 11:49:27;;;;;;;5.25;4.75;;;33.60;99.90;;;;;;5061163;28;20702;-77
2023/07/10 11:52:12;;;;;;;6.95;5.55;;;33.60;99.90;;;;;;5045110;28;20305;-77
2023/07/10 11:54:40;;;;;;;5.85;5.35;;;33.60;99.90;;;;;;5062614;28;20226;-76
2023/07/10 11:57:15;;;;;;;6.10;5.40;;;33.70;99.90;;;;;;5062621;28;20206;-77
2023/07/10 11:59:48;;;;;;;7.13;5.68;;;33.90;99.90;;;;;;5061004;28;20202;-76
2023/07/10 12:02:33;;;;;;;5.85;5.35;;;34.00;99.90;;;;;;5063316;28;20194;-77
2023/07/10 12:05:04;;;;;;;5.38;4.97;;;33.90;99.90;;;;;;5061920;28;20206;-76
2023/07/10 12:07:31;;;;;;;5.75;5.15;;;33.60;99.90;;;;;;5063838;28;20746;-76
2023/07/10 12:10:00;;;;;;;5.78;5.22;;;33.60;99.90;;;;;;5064619;28;20295;-76
2023/07/10 12:12:31;;;;;;;5.57;5.00;;;33.70;99.90;;;;;;5061462;28;20267;-77
2023/07/10 12:15:02;;;;;;;6.70;5.28;;;33.80;99.90;;;;;;5059176;28;20190;-76
2023/07/10 12:17:31;;;;;;;5.93;5.32;;;33.90;99.90;;;;;;5060632;28;20225;-76
2023/07/10 12:20:03;;;;;;;5.80;5.30;;;34.00;99.90;;;;;;5057894;28;20238;-76
2023/07/10 12:22:39;;;;;;;6.03;5.05;;;34.00;99.90;;;;;;5058600;28;20578;-76
2023/07/10 12:25:12;;;;;;;5.68;5.13;;;34.10;99.90;;;;;;5058424;28;20206;-76
2023/07/10 12:27:39;;;;;;;5.72;5.22;;;34.20;99.90;;;;;;5057141;28;20503;-76
2023/07/10 12:30:15;;;;;;;5.72;4.88;;;34.30;99.90;;;;;;5057032;28;20817;-75
2023/07/10 12:32:42;;;;;;;5.82;5.22;;;34.20;99.90;;;;;;5061085;28;20301;-76
2023/07/10 12:35:17;;;;;;;7.95;5.13;;;34.20;99.90;;;;;;5059830;28;20252;-77
2023/07/10 12:37:47;;;;;;;6.05;5.45;;;34.10;99.90;;;;;;5061174;28;20198;-76
2023/07/10 12:40:16;;;;;;;5.47;5.00;;;34.00;99.90;;;;;;5061271;28;20293;-77
2023/07/10 12:42:44;;;;;;;5.45;5.03;;;34.10;99.90;;;;;;5061276;28;20932;-76
2023/07/10 12:45:18;;;;;;;7.13;5.50;;;34.20;99.90;;;;;;5061715;28;20198;-76
2023/07/10 12:47:51;;;;;;;5.97;5.45;;;34.30;99.90;;;;;;5063375;28;20251;-75
2023/07/10 12:50:31;;;;;;;6.00;5.40;;;34.40;99.90;;;;;;5061689;28;20642;-76
2023/07/10 12:52:58;;;;;;;6.05;5.47;;;34.40;99.90;;;;;;5061026;28;20217;-77
2023/07/10 12:55:30;;;;;;;5.50;5.05;;;34.40;99.90;;;;;;5058464;28;20222;-76
2023/07/10 12:57:59;;;;;;;5.80;5.30;;;34.30;99.90;;;;;;5062869;28;20692;-78
2023/07/10 13:00:40;;;;;;;8.45;5.90;;;34.40;99.90;;;;;;5062166;28;20614;-77
2023/07/10 13:03:26;;;;;;;6.50;5.20;;;34.50;99.90;;;;;;5056812;28;20215;-76
2023/07/10 13:05:58;;;;;;;5.50;5.00;;;34.70;99.90;;;;;;5061407;28;20198;-77
2023/07/10 13:08:32;;;;;;;6.00;5.22;;;35.00;99.90;;;;;;5060145;28;20194;-76